createdAt,value
2017-06-10T00:01:29.938Z,11
2017-06-10T00:11:29.963Z,10
2017-06-10T00:21:30.077Z,10
2017-06-10T00:31:30.348Z,11
2017-06-10T00:41:29.937Z,17
2017-06-10T00:51:30.067Z,16
2017-06-10T01:01:30.362Z,11
2017-06-10T01:11:29.970Z,14
2017-06-10T01:21:32.888Z,12
2017-06-10T01:31:30.866Z,13
2017-06-10T01:41:29.924Z,13
2017-06-10T01:51:29.915Z,12
2017-06-10T02:01:30.340Z,13
2017-06-10T02:11:29.949Z,14
2017-06-10T02:21:29.856Z,14
2017-06-10T02:31:29.938Z,13
2017-06-10T02:41:29.894Z,10
2017-06-10T02:51:29.899Z,17
2017-06-10T03:01:29.971Z,18
2017-06-10T03:11:29.902Z,18
2017-06-10T03:21:29.858Z,18
2017-06-10T03:31:29.899Z,16
2017-06-10T03:41:29.874Z,15
2017-06-10T03:51:30.002Z,17
2017-06-10T04:01:29.918Z,14
2017-06-10T04:11:29.881Z,14
2017-06-10T04:21:29.929Z,20
2017-06-10T04:31:39.666Z,17
2017-06-10T04:41:29.847Z,13
2017-06-10T04:51:30.010Z,14
2017-06-10T05:01:29.914Z,16
2017-06-10T05:11:29.939Z,12
2017-06-10T05:21:29.903Z,13
2017-06-10T05:31:29.865Z,11
2017-06-10T05:41:29.929Z,7
2017-06-10T05:51:29.884Z,12
2017-06-10T06:01:29.849Z,11
2017-06-10T06:11:29.932Z,7
2017-06-10T06:21:29.879Z,11
2017-06-10T06:31:29.920Z,9
2017-06-10T06:41:29.898Z,8
2017-06-10T06:51:29.979Z,6
2017-06-10T07:01:29.933Z,7
2017-06-10T07:11:30.427Z,12
2017-06-10T07:21:30.566Z,6
2017-06-10T07:31:29.879Z,7
2017-06-10T07:41:30.010Z,7
2017-06-10T07:51:30.050Z,4
2017-06-10T08:01:29.991Z,5
2017-06-10T08:11:30.061Z,4
2017-06-10T08:21:29.917Z,4
2017-06-10T08:31:30.074Z,6
2017-06-10T08:41:29.916Z,5
2017-06-10T08:51:30.063Z,8
2017-06-10T09:01:30.384Z,5
2017-06-10T09:11:29.981Z,5
2017-06-10T09:21:30.048Z,8
2017-06-10T09:31:29.983Z,7
2017-06-10T09:41:30.066Z,6
2017-06-10T09:51:30.066Z,8
2017-06-10T10:01:29.984Z,5
2017-06-10T10:11:30.076Z,7
2017-06-10T10:21:30.131Z,7
2017-06-10T10:31:30.087Z,5
2017-06-10T10:41:30.050Z,7
2017-06-10T10:51:29.986Z,8
2017-06-10T11:01:30.066Z,9
2017-06-10T11:11:29.970Z,4
2017-06-10T11:21:30.018Z,6
2017-06-10T11:31:30.011Z,6
2017-06-10T11:41:30.104Z,7
2017-06-10T11:51:30.031Z,6
2017-06-10T12:01:30.031Z,7
2017-06-10T12:11:30.076Z,4
2017-06-10T12:21:30.149Z,4
2017-06-10T12:31:30.110Z,6
2017-06-10T12:41:30.031Z,6
2017-06-10T12:51:30.210Z,5
2017-06-10T13:01:30.292Z,7
2017-06-10T13:11:30.316Z,5
2017-06-10T13:21:30.651Z,6
2017-06-10T13:31:30.177Z,4
2017-06-10T13:41:30.088Z,4
2017-06-10T13:51:30.252Z,5
2017-06-10T14:01:31.228Z,6
2017-06-10T14:11:30.069Z,8
2017-06-10T14:21:30.130Z,5
2017-06-10T14:31:30.046Z,5
2017-06-10T14:41:30.104Z,7
2017-06-10T14:51:30.094Z,3
2017-06-10T15:01:29.976Z,2
2017-06-10T15:11:30.033Z,5
2017-06-10T15:21:29.977Z,3
2017-06-10T15:31:30.134Z,2
2017-06-10T15:41:30.200Z,4
2017-06-10T15:51:30.127Z,5
2017-06-10T16:01:30.904Z,5
2017-06-10T16:11:30.027Z,5
2017-06-10T16:21:30.111Z,5
2017-06-10T16:31:30.265Z,3
2017-06-10T16:41:30.113Z,4
2017-06-10T16:51:30.592Z,8
2017-06-10T17:01:30.213Z,5
2017-06-10T17:11:30.114Z,4
2017-06-10T17:21:30.203Z,4
2017-06-10T17:31:30.303Z,5
2017-06-10T17:41:30.338Z,7
2017-06-10T17:51:30.117Z,6
2017-06-10T18:01:31.177Z,3
2017-06-10T18:11:30.442Z,4
2017-06-10T18:21:30.396Z,4
2017-06-10T18:31:30.105Z,6
2017-06-10T18:41:30.166Z,9
2017-06-10T18:51:30.107Z,5
2017-06-10T19:01:30.104Z,7
2017-06-10T19:11:30.297Z,5
2017-06-10T19:21:30.184Z,4
2017-06-10T19:31:30.149Z,6
2017-06-10T19:41:30.140Z,6
2017-06-10T19:51:30.278Z,5
2017-06-10T20:01:30.121Z,4
2017-06-10T20:11:30.146Z,8
2017-06-10T20:21:30.101Z,5
2017-06-10T20:31:30.161Z,4
2017-06-10T20:41:30.145Z,6
2017-06-10T20:51:30.123Z,7
2017-06-10T21:01:31.356Z,5
2017-06-10T21:11:30.059Z,5
2017-06-10T21:21:31.052Z,5
2017-06-10T21:31:32.536Z,6
2017-06-10T21:41:31.250Z,8
2017-06-10T21:51:30.307Z,9
2017-06-10T22:01:32.334Z,7
2017-06-10T22:11:34.267Z,9
2017-06-10T22:21:36.720Z,7
2017-06-10T22:31:31.066Z,7
2017-06-10T22:41:30.094Z,6
2017-06-10T22:51:30.047Z,7
2017-06-10T23:01:36.185Z,9
2017-06-10T23:11:30.229Z,7
2017-06-10T23:21:30.158Z,8
2017-06-10T23:31:32.136Z,5
2017-06-10T23:41:30.177Z,6
2017-06-10T23:51:30.100Z,10
